FTTH31 VTSS 070500
TAF VTSS 070500Z 0706/0806 06006KT 9999 SCT020 BKN100
TEMPO 0706/0715 VRB15G25KT 3000 TSRA FEW016CB SCT018 BKN100
BECMG 0715/0717 00000KT=

TAF VTPH 070500Z 0706/0806 16005KT 9999 SCT020 BKN100
TEMPO 0706/0712 VRB15G25KT 3000 TSRA FEW016CB SCT018 BKN100
PROB40 TEMPO 0800/0806 4000 RA=

TAF VTSE 070500Z 0706/0806 09006KT 9999 SCT020 BKN100
TEMPO 0706/0718 3000 RA
TEMPO 0718/0806 3000 RA=

TAF VTSM 070500Z 0706/0806 16008KT 9999 SCT020 BKN100
TEMPO 0706/0715 VRB15G25KT 3000 TSRA FEW016CB SCT018 BKN100
TEMPO 0718/0806 3000 RA=

TAF VTSB 070500Z 0706/0806 20006KT 9999 SCT020 BKN100
TEMPO 0706/0715 VRB15G25KT 3000 TSRA FEW016CB SCT018 BKN100=

TAF VTSF 070500Z 0706/0806 14006KT 9999 SCT020 BKN100
TEMPO 0706/0715 VRB15G25KT 3000 TSRA FEW016CB SCT018 BKN100
BECMG 0718/0720 32003KT
TEMPO 0721/0803 4000 RA=

TAF VTSC 070500Z 0706/0806 14008KT 9999 SCT020 BKN100
TEMPO 0706/0715 VRB15G25KT 3000 TSRA FEW016CB SCT018 BKN100
BECMG 0715/0717 20003KT=


TAF VTSY 070500Z 0706/0806 24005KT 9999 SCT020 BKN100
TEMPO 0706/0715 VRB15G25KT 3000 TSRA FEW016CB SCT018 BKN100
BECMG 0721/0723 1500 BR BKN005
BECMG 0801/0803 9999 NSW FEW020=



FTTH31 VTBS 070500
TAF VTBS 070500Z 0706/0812 08008KT 9000 FEW020 SCT080
TEMPO 0707/0713 09010G25KT 4000 TSRA FEW018CB SCT035 BKN080
BECMG 0717/0719 01005KT
BECMG 0800/0802 09008KT=
TAF VTBD 070500Z 0706/0812 07005KT 9000 FEW020 SCT080
TEMPO 0707/0713 09010G25KT 4000 TSRA FEW018CB SCT035 BKN080
BECMG 0717/0719 35005KT
BECMG 0800/0802 08005KT=
TAF VTBO 070500Z 0706/0806 24008KT 9000 FEW020 SCT080
TEMPO 0706/0712 10010G25KT 4000 TSRA FEW018CB SCT035 BKN080
BECMG 0716/0718 08005KT
BECMG 0800/0802 22008KT=



FTTH31 VTUK 070500
TAF VTUK 070500Z 0706/0806 06005KT 9000 FEW030 SCT080=

TAF VTUD 070500Z 0706/0806 07005KT 9999 SCT025
TEMPO 0711/0717 VRB15KT 4000 TSRA FEW018CB BKN020 BKN080=

TAF VTUL 070500Z 0706/0806 08005KT 9999 SCT025=

TAF VTUI 070500Z 0706/0806 07005KT 9999 FEW030 SCT080
TEMPO 0711/0717 VRB15KT 4000 TSRA FEW018CB BKN020 BKN080=

TAF VTUW 070500Z 0706/0806 07005KT 9999 FEW030 SCT080
TEMPO 0711/0717 VRB15KT 4000 TSRA FEW018CB BKN020 BKN080=



FTTH31 VTBU 070500
TAF VTBU 070500Z 0706/0806 16008KT 9999 FEW020
BECMG 0712/0714 01004KT
BECMG 0801/0803 16008KT=



FTTH31 VTUU 070500
TAF VTUU 070500Z 0706/0806 08005KT 9999 SCT030=
TAF VTUO 070500Z 0706/0806 07005KT 9999 SCT030=
TAF VTUQ 070500Z 0706/0806 06005KT 9999 SCT030
TEMPO 0709/0712 VRB15KT 4000 TSRA FEW018CB BKN020=
TAF VTUV 070500Z 0706/0806 09005KT 9999 SCT030=



FTTH31 VTCC 070500 CCA
TAF VTPT 070500Z 0706/0806 09005KT 9999 SCT024
TEMPO 0708/0712 10010G25KT 4000 TSRA FEW018CB BKN024
TEMPO 0717/0723 -TSRA FEW018CB BKN024=



FTTH31 VTCC 070500
TAF VTCC 070500Z 0706/0812 17005KT 9999 BKN035
TEMPO 0706/0712 11010G25KT -TSRA FEW025CB BKN035
BECMG 0708/0710 24005KT
BECMG 0715/0717 35005KT
TEMPO 0717/0723 -TSRA FEW025CB BKN035
BECMG 0800/0802 06005KT=
TAF VTCT 070500Z 0706/0812 04005KT 9999 SCT035
TEMPO 0719/0801 -TSRA FEW018CB BKN025=
TAF VTCH 070500Z 0706/0806 20005KT 9999 BKN025
TEMPO 0707/0713 11010G25KT 4000 TSRA FEW020CB BKN025
BECMG 0721/0723 00000KT 2000 BR
BECMG 0800/0802 33005KT 9999 NSW=
TAF VTCN 070500Z 0706/0806 02005KT 9999 SCT030
TEMPO 0707/0711 10010G25KT 4000 TSRA FEW020CB BKN025
TEMPO 0715/0721 -TSRA FEW020CB BKN025=
TAF VTCL 070500Z 0706/0806 03005KT 9999 SCT025
TEMPO 0706/0712 12015KT 4000 TSRA FEW020CB BKN025
TEMPO 0717/0723 -TSRA FEW020CB BKN025=
TAF VTCP 070500Z 0706/0806 02005KT 9999 SCT030
TEMPO 0706/0712 12010G25KT 4000 TSRA FEW020CB BKN030
TEMPO 0716/0722 -TSRA FEW020CB BKN030=
TAF VTPT 070500Z 0706/0806 09005KT 9999 SCT024
TEMPO 0708/0712 10010G25KT 4000 TSRA FEW018CB BKN026
TEMPO 0717/0723 -TSRA FEW018CB BKN026=
TAF VTPM 070500Z 0706/0806 09005KT 9999 SCT040=
TAF VTPP 070500Z 0706/0806 36005KT 9999 SCT030
TEMPO 0707/0711 10010G25KT 4000 TSRA FEW018CB BKN025
TEMPO 0716/0722 -TSRA FEW018CB BKN025=
TAF VTPB 070500Z 0706/0806 36005KT 9999 SCT030
TEMPO 0706/0710 09010G25KT 4000 TSRA FEW018CB BKN030
TEMPO 0715/0721 -TSRA FEW018CB BKN030=
TAF VTPO 070500Z 0706/0806 06005KT 9999 SCT020
TEMPO 0707/0711 10010G25KT 4000 TSRA FEW018CB BKN020
TEMPO 0716/0722 -TSRA FEW018CB BKN020=



FTTH31 VTSP 070500
TAF VTSP 070500Z 0706/0812 08006KT 9999 SCT020
TEMPO 0706/0712 28015G25KT 3000 TSRA FEW018CB SCT020 BKN100
BECMG 0714/0716 00000KT
BECMG 0800/0802 08006KT=
TAF VTSG 070500Z 0706/0806 06006KT 9999 SCT020
TEMPO 0706/0712 06015G25KT 3000 TSRA FEW018CB SCT020 BKN100
BECMG 0714/0716 00000KT
BECMG 0720/0722 3000 BR
BECMG 0800/0802 06006KT 9999 NSW=
TAF VTST 070500Z 0706/0806 06006KT 9999 SCT020
TEMPO 0706/0712 06015G25KT 3000 TSRA FEW018CB SCT020 BKN100
BECMG 0714/0716 00000KT
BECMG 0720/0722 0800 FG
BECMG 0800/0802 06006KT 9999 NSW=
TAF VTSR 070500Z 0706/0806 06006KT 9999 SCT020
TEMPO 0706/0712 06015G25KT 3000 TSRA FEW018CB SCT020 BKN100
BECMG 0714/0716 00000KT
BECMG 0800/0802 08006KT=



FTTH20 VTBB 070500
TAF VTBD 070500Z 0706/0812 07005KT 9000 FEW020 SCT080
TEMPO 0707/0713 09010G25KT 4000 TSRA FEW018CB SCT035 BKN080
BECMG 0717/0719 35005KT
BECMG 0800/0802 08005KT=
TAF VTBS 070500Z 0706/0812 08008KT 9000 FEW020 SCT080
TEMPO 0707/0713 09010G25KT 4000 TSRA FEW018CB SCT035 BKN080
BECMG 0717/0719 01005KT
BECMG 0800/0802 09008KT=
TAF VTBU 070500Z 0706/0806 16008KT 9999 FEW020
BECMG 0712/0714 01004KT
BECMG 0801/0803 16008KT=
TAF VTCC 070500Z 0706/0812 17005KT 9999 BKN035
TEMPO 0706/0712 11010G25KT -TSRA FEW025CB BKN035
BECMG 0708/0710 24005KT
BECMG 0715/0717 35005KT
TEMPO 0717/0723 -TSRA FEW025CB BKN035
BECMG 0800/0802 06005KT=
TAF VTSP 070500Z 0706/0812 08006KT 9999 SCT020
TEMPO 0706/0712 28015G25KT 3000 TSRA FEW018CB SCT020 BKN100
BECMG 0714/0716 00000KT
BECMG 0800/0802 08006KT=
TAF VTSS 070500Z 0706/0806 06006KT 9999 SCT020 BKN100
TEMPO 0706/0715 VRB15G25KT 3000 TSRA FEW016CB SCT018 BKN100
BECMG 0715/0717 00000KT=
TAF VTUK 070500Z 0706/0806 06005KT 9000 FEW030 SCT080=
TAF VTUU 070500Z 0706/0806 08005KT 9999 SCT030=




New Window